sensor_id;sensor_type;location;lat;lon;timestamp;P1;durP1;ratioP1;P2;durP2;ratioP2
18776;SDS011;9517;51.174;4.160;2024-01-15T00:01:56;14.77;;;6.23;;
18776;SDS011;9517;51.174;4.160;2024-01-15T00:04:23;18.90;;;6.30;;
18776;SDS011;9517;51.174;4.160;2024-01-15T00:06:50;15.83;;;6.43;;
18776;SDS011;9517;51.174;4.160;2024-01-15T00:09:17;21.53;;;7.50;;
18776;SDS011;9517;51.174;4.160;2024-01-15T00:11:44;17.53;;;5.57;;
18776;SDS011;9517;51.174;4.160;2024-01-15T00:14:11;13.97;;;5.03;;
18776;SDS011;9517;51.174;4.160;2024-01-15T00:16:41;12.43;;;4.17;;
18776;SDS011;9517;51.174;4.160;2024-01-15T00:19:08;12.33;;;3.63;;
18776;SDS011;9517;51.174;4.160;2024-01-15T00:21:35;13.43;;;3.67;;
18776;SDS011;9517;51.174;4.160;2024-01-15T00:24:02;13.30;;;1.77;;
18776;SDS011;9517;51.174;4.160;2024-01-15T00:26:29;9.47;;;1.60;;
18776;SDS011;9517;51.174;4.160;2024-01-15T00:28:56;9.97;;;1.40;;
18776;SDS011;9517;51.174;4.160;2024-01-15T00:31:24;8.07;;;1.63;;
18776;SDS011;9517;51.174;4.160;2024-01-15T00:33:52;7.57;;;1.63;;
18776;SDS011;9517;51.174;4.160;2024-01-15T00:36:19;9.43;;;2.03;;
18776;SDS011;9517;51.174;4.160;2024-01-15T00:38:47;11.43;;;2.03;;
18776;SDS011;9517;51.174;4.160;2024-01-15T00:41:14;8.33;;;2.00;;
18776;SDS011;9517;51.174;4.160;2024-01-15T00:43:41;8.47;;;1.90;;
18776;SDS011;9517;51.174;4.160;2024-01-15T00:46:08;6.97;;;1.50;;
18776;SDS011;9517;51.174;4.160;2024-01-15T00:48:35;13.53;;;2.00;;
18776;SDS011;9517;51.174;4.160;2024-01-15T00:51:04;10.33;;;1.67;;
18776;SDS011;9517;51.174;4.160;2024-01-15T00:53:31;9.67;;;1.80;;
18776;SDS011;9517;51.174;4.160;2024-01-15T00:55:58;12.60;;;1.90;;
18776;SDS011;9517;51.174;4.160;2024-01-15T00:58:25;16.17;;;2.00;;
18776;SDS011;9517;51.174;4.160;2024-01-15T01:00:52;12.47;;;2.20;;
18776;SDS011;9517;51.174;4.160;2024-01-15T01:03:20;10.93;;;1.60;;
18776;SDS011;9517;51.174;4.160;2024-01-15T01:05:48;9.27;;;1.60;;
18776;SDS011;9517;51.174;4.160;2024-01-15T01:08:16;8.07;;;1.53;;
18776;SDS011;9517;51.174;4.160;2024-01-15T01:10:43;13.13;;;2.17;;
18776;SDS011;9517;51.174;4.160;2024-01-15T01:13:10;10.30;;;1.80;;
18776;SDS011;9517;51.174;4.160;2024-01-15T01:15:38;11.03;;;2.07;;
18776;SDS011;9517;51.174;4.160;2024-01-15T01:18:05;16.37;;;2.30;;
18776;SDS011;9517;51.174;4.160;2024-01-15T01:20:32;11.77;;;1.87;;
18776;SDS011;9517;51.174;4.160;2024-01-15T01:22:59;11.07;;;1.77;;
18776;SDS011;9517;51.174;4.160;2024-01-15T01:25:27;10.70;;;1.90;;
18776;SDS011;9517;51.174;4.160;2024-01-15T01:27:54;11.57;;;1.60;;
18776;SDS011;9517;51.174;4.160;2024-01-15T01:30:21;8.27;;;1.17;;
18776;SDS011;9517;51.174;4.160;2024-01-15T01:32:48;10.67;;;1.60;;
18776;SDS011;9517;51.174;4.160;2024-01-15T01:35:15;11.13;;;1.27;;
18776;SDS011;9517;51.174;4.160;2024-01-15T01:37:42;10.60;;;1.50;;
18776;SDS011;9517;51.174;4.160;2024-01-15T01:40:09;12.07;;;1.23;;
18776;SDS011;9517;51.174;4.160;2024-01-15T01:42:38;12.03;;;1.40;;
18776;SDS011;9517;51.174;4.160;2024-01-15T01:45:05;9.30;;;1.33;;
18776;SDS011;9517;51.174;4.160;2024-01-15T01:47:32;9.63;;;1.00;;
18776;SDS011;9517;51.174;4.160;2024-01-15T01:50:00;11.10;;;1.33;;
18776;SDS011;9517;51.174;4.160;2024-01-15T01:52:29;8.27;;;1.03;;
18776;SDS011;9517;51.174;4.160;2024-01-15T01:54:56;7.53;;;0.90;;
18776;SDS011;9517;51.174;4.160;2024-01-15T01:57:25;10.00;;;0.83;;
18776;SDS011;9517;51.174;4.160;2024-01-15T01:59:53;7.53;;;0.87;;
18776;SDS011;9517;51.174;4.160;2024-01-15T02:02:21;16.50;;;1.50;;
18776;SDS011;9517;51.174;4.160;2024-01-15T02:04:49;10.67;;;1.60;;
18776;SDS011;9517;51.174;4.160;2024-01-15T02:07:16;6.13;;;0.87;;
18776;SDS011;9517;51.174;4.160;2024-01-15T02:09:44;9.27;;;1.40;;
18776;SDS011;9517;51.174;4.160;2024-01-15T02:12:11;7.83;;;1.37;;
18776;SDS011;9517;51.174;4.160;2024-01-15T02:14:38;8.63;;;1.77;;
18776;SDS011;9517;51.174;4.160;2024-01-15T02:17:07;10.37;;;1.87;;
18776;SDS011;9517;51.174;4.160;2024-01-15T02:19:34;11.77;;;1.70;;
18776;SDS011;9517;51.174;4.160;2024-01-15T02:22:01;13.23;;;1.80;;
18776;SDS011;9517;51.174;4.160;2024-01-15T02:24:30;9.70;;;1.37;;
18776;SDS011;9517;51.174;4.160;2024-01-15T02:26:57;9.37;;;1.40;;
18776;SDS011;9517;51.174;4.160;2024-01-15T02:29:24;10.07;;;1.30;;
18776;SDS011;9517;51.174;4.160;2024-01-15T02:31:51;10.53;;;1.50;;
18776;SDS011;9517;51.174;4.160;2024-01-15T02:34:18;10.83;;;1.40;;
18776;SDS011;9517;51.174;4.160;2024-01-15T02:36:45;12.27;;;2.30;;
18776;SDS011;9517;51.174;4.160;2024-01-15T02:39:12;8.83;;;1.20;;
18776;SDS011;9517;51.174;4.160;2024-01-15T02:41:41;13.43;;;1.33;;
18776;SDS011;9517;51.174;4.160;2024-01-15T02:44:08;15.43;;;1.60;;
18776;SDS011;9517;51.174;4.160;2024-01-15T02:46:35;13.30;;;1.40;;
18776;SDS011;9517;51.174;4.160;2024-01-15T02:49:02;15.33;;;1.53;;
18776;SDS011;9517;51.174;4.160;2024-01-15T02:51:29;10.93;;;1.43;;
18776;SDS011;9517;51.174;4.160;2024-01-15T02:53:56;7.13;;;1.50;;
18776;SDS011;9517;51.174;4.160;2024-01-15T02:56:23;10.83;;;2.10;;
18776;SDS011;9517;51.174;4.160;2024-01-15T02:58:52;14.00;;;1.40;;
18776;SDS011;9517;51.174;4.160;2024-01-15T03:01:19;19.83;;;2.67;;
18776;SDS011;9517;51.174;4.160;2024-01-15T03:03:47;11.30;;;1.30;;
18776;SDS011;9517;51.174;4.160;2024-01-15T03:06:14;15.00;;;1.80;;
18776;SDS011;9517;51.174;4.160;2024-01-15T03:08:41;12.10;;;1.57;;
18776;SDS011;9517;51.174;4.160;2024-01-15T03:11:08;15.50;;;1.50;;
18776;SDS011;9517;51.174;4.160;2024-01-15T03:13:35;13.03;;;2.03;;
18776;SDS011;9517;51.174;4.160;2024-01-15T03:16:05;8.17;;;1.57;;
18776;SDS011;9517;51.174;4.160;2024-01-15T03:18:32;11.80;;;1.60;;
18776;SDS011;9517;51.174;4.160;2024-01-15T03:20:59;10.73;;;2.27;;
18776;SDS011;9517;51.174;4.160;2024-01-15T03:23:27;11.83;;;2.70;;
18776;SDS011;9517;51.174;4.160;2024-01-15T03:25:54;13.40;;;2.67;;
18776;SDS011;9517;51.174;4.160;2024-01-15T03:28:21;9.37;;;2.43;;
18776;SDS011;9517;51.174;4.160;2024-01-15T03:30:48;14.30;;;3.07;;
18776;SDS011;9517;51.174;4.160;2024-01-15T03:33:17;13.73;;;3.30;;
18776;SDS011;9517;51.174;4.160;2024-01-15T03:35:44;15.23;;;3.37;;
18776;SDS011;9517;51.174;4.160;2024-01-15T03:38:11;11.47;;;3.80;;
18776;SDS011;9517;51.174;4.160;2024-01-15T03:40:38;10.00;;;2.77;;
18776;SDS011;9517;51.174;4.160;2024-01-15T03:43:05;14.53;;;3.37;;
18776;SDS011;9517;51.174;4.160;2024-01-15T03:45:32;14.43;;;3.93;;
18776;SDS011;9517;51.174;4.160;2024-01-15T03:47:59;14.27;;;3.93;;
18776;SDS011;9517;51.174;4.160;2024-01-15T03:50:28;15.53;;;4.83;;
18776;SDS011;9517;51.174;4.160;2024-01-15T03:52:55;18.57;;;5.10;;
18776;SDS011;9517;51.174;4.160;2024-01-15T03:55:22;15.37;;;4.57;;
18776;SDS011;9517;51.174;4.160;2024-01-15T03:57:49;13.37;;;4.83;;
18776;SDS011;9517;51.174;4.160;2024-01-15T04:00:17;14.53;;;4.80;;
18776;SDS011;9517;51.174;4.160;2024-01-15T04:02:45;16.80;;;4.63;;
18776;SDS011;9517;51.174;4.160;2024-01-15T04:05:12;17.27;;;5.30;;
18776;SDS011;9517;51.174;4.160;2024-01-15T04:07:41;14.30;;;5.67;;
18776;SDS011;9517;51.174;4.160;2024-01-15T04:10:08;15.70;;;5.50;;
18776;SDS011;9517;51.174;4.160;2024-01-15T04:12:35;18.90;;;6.13;;
18776;SDS011;9517;51.174;4.160;2024-01-15T04:15:03;18.33;;;4.77;;
18776;SDS011;9517;51.174;4.160;2024-01-15T04:17:30;18.47;;;5.90;;
18776;SDS011;9517;51.174;4.160;2024-01-15T04:19:57;17.97;;;5.73;;
18776;SDS011;9517;51.174;4.160;2024-01-15T04:22:24;15.67;;;5.33;;
18776;SDS011;9517;51.174;4.160;2024-01-15T04:24:53;18.77;;;5.33;;
18776;SDS011;9517;51.174;4.160;2024-01-15T04:27:20;20.90;;;6.00;;
18776;SDS011;9517;51.174;4.160;2024-01-15T04:29:47;14.40;;;5.53;;
18776;SDS011;9517;51.174;4.160;2024-01-15T04:32:14;21.70;;;6.03;;
18776;SDS011;9517;51.174;4.160;2024-01-15T04:34:41;16.93;;;5.30;;
18776;SDS011;9517;51.174;4.160;2024-01-15T04:37:13;21.83;;;5.90;;
18776;SDS011;9517;51.174;4.160;2024-01-15T04:39:40;16.77;;;5.87;;
18776;SDS011;9517;51.174;4.160;2024-01-15T04:42:08;14.70;;;5.37;;
18776;SDS011;9517;51.174;4.160;2024-01-15T04:44:35;16.33;;;5.60;;
18776;SDS011;9517;51.174;4.160;2024-01-15T04:47:03;16.17;;;5.70;;
18776;SDS011;9517;51.174;4.160;2024-01-15T04:49:33;17.20;;;6.20;;
18776;SDS011;9517;51.174;4.160;2024-01-15T04:52:01;19.20;;;6.20;;
18776;SDS011;9517;51.174;4.160;2024-01-15T04:54:30;13.83;;;5.53;;
18776;SDS011;9517;51.174;4.160;2024-01-15T04:56:57;31.30;;;6.63;;
18776;SDS011;9517;51.174;4.160;2024-01-15T04:59:26;19.07;;;5.20;;
18776;SDS011;9517;51.174;4.160;2024-01-15T05:01:53;19.20;;;5.97;;
18776;SDS011;9517;51.174;4.160;2024-01-15T05:04:21;19.37;;;5.50;;
18776;SDS011;9517;51.174;4.160;2024-01-15T05:06:49;14.50;;;5.33;;
18776;SDS011;9517;51.174;4.160;2024-01-15T05:09:16;15.13;;;5.00;;
18776;SDS011;9517;51.174;4.160;2024-01-15T05:11:44;16.77;;;4.73;;
18776;SDS011;9517;51.174;4.160;2024-01-15T05:14:11;15.47;;;4.60;;
18776;SDS011;9517;51.174;4.160;2024-01-15T05:16:39;20.03;;;5.20;;
18776;SDS011;9517;51.174;4.160;2024-01-15T05:19:12;17.37;;;4.80;;
18776;SDS011;9517;51.174;4.160;2024-01-15T05:21:40;16.40;;;4.83;;
18776;SDS011;9517;51.174;4.160;2024-01-15T05:24:07;21.23;;;4.87;;
18776;SDS011;9517;51.174;4.160;2024-01-15T05:26:34;16.10;;;4.40;;
18776;SDS011;9517;51.174;4.160;2024-01-15T05:29:01;17.47;;;4.00;;
18776;SDS011;9517;51.174;4.160;2024-01-15T05:31:29;15.23;;;4.53;;
18776;SDS011;9517;51.174;4.160;2024-01-15T05:33:58;18.20;;;4.80;;
18776;SDS011;9517;51.174;4.160;2024-01-15T05:36:27;15.27;;;4.20;;
18776;SDS011;9517;51.174;4.160;2024-01-15T05:38:54;15.17;;;4.60;;
18776;SDS011;9517;51.174;4.160;2024-01-15T05:41:22;12.97;;;3.90;;
18776;SDS011;9517;51.174;4.160;2024-01-15T05:43:49;19.67;;;3.90;;
18776;SDS011;9517;51.174;4.160;2024-01-15T05:46:16;17.23;;;4.87;;
18776;SDS011;9517;51.174;4.160;2024-01-15T05:48:45;12.33;;;3.70;;
18776;SDS011;9517;51.174;4.160;2024-01-15T05:51:16;18.03;;;4.67;;
18776;SDS011;9517;51.174;4.160;2024-01-15T05:54:03;19.23;;;4.20;;
18776;SDS011;9517;51.174;4.160;2024-01-15T06:00:46;13.20;;;3.83;;
18776;SDS011;9517;51.174;4.160;2024-01-15T06:03:27;14.60;;;3.67;;
18776;SDS011;9517;51.174;4.160;2024-01-15T06:11:10;22.20;;;4.07;;
18776;SDS011;9517;51.174;4.160;2024-01-15T06:13:38;17.83;;;3.90;;
18776;SDS011;9517;51.174;4.160;2024-01-15T06:16:11;17.70;;;3.93;;
18776;SDS011;9517;51.174;4.160;2024-01-15T06:18:40;16.23;;;3.90;;
18776;SDS011;9517;51.174;4.160;2024-01-15T06:21:09;18.23;;;3.93;;
18776;SDS011;9517;51.174;4.160;2024-01-15T06:23:40;18.30;;;4.40;;
18776;SDS011;9517;51.174;4.160;2024-01-15T06:28:54;16.47;;;3.97;;
18776;SDS011;9517;51.174;4.160;2024-01-15T06:31:22;17.03;;;4.27;;
18776;SDS011;9517;51.174;4.160;2024-01-15T06:33:50;18.10;;;3.90;;
18776;SDS011;9517;51.174;4.160;2024-01-15T06:36:38;16.53;;;3.30;;
18776;SDS011;9517;51.174;4.160;2024-01-15T06:39:23;13.60;;;3.17;;
18776;SDS011;9517;51.174;4.160;2024-01-15T06:41:52;13.80;;;3.37;;
18776;SDS011;9517;51.174;4.160;2024-01-15T06:44:20;11.40;;;2.90;;
18776;SDS011;9517;51.174;4.160;2024-01-15T06:49:33;14.07;;;3.20;;
18776;SDS011;9517;51.174;4.160;2024-01-15T06:52:01;11.87;;;2.80;;
18776;SDS011;9517;51.174;4.160;2024-01-15T06:54:29;16.80;;;3.03;;
18776;SDS011;9517;51.174;4.160;2024-01-15T06:56:58;18.37;;;2.67;;
18776;SDS011;9517;51.174;4.160;2024-01-15T06:59:26;11.93;;;2.70;;
18776;SDS011;9517;51.174;4.160;2024-01-15T07:01:53;16.07;;;2.70;;
18776;SDS011;9517;51.174;4.160;2024-01-15T07:04:21;15.90;;;2.07;;
18776;SDS011;9517;51.174;4.160;2024-01-15T07:06:48;18.63;;;2.40;;
18776;SDS011;9517;51.174;4.160;2024-01-15T07:09:16;9.33;;;2.30;;
18776;SDS011;9517;51.174;4.160;2024-01-15T07:11:44;14.00;;;2.40;;
18776;SDS011;9517;51.174;4.160;2024-01-15T07:14:14;17.30;;;2.27;;
18776;SDS011;9517;51.174;4.160;2024-01-15T07:16:42;15.43;;;2.20;;
18776;SDS011;9517;51.174;4.160;2024-01-15T07:19:09;11.33;;;2.20;;
18776;SDS011;9517;51.174;4.160;2024-01-15T07:21:37;9.40;;;2.10;;
18776;SDS011;9517;51.174;4.160;2024-01-15T07:24:07;9.60;;;1.97;;
18776;SDS011;9517;51.174;4.160;2024-01-15T07:26:35;14.83;;;1.80;;
18776;SDS011;9517;51.174;4.160;2024-01-15T07:29:03;12.73;;;1.47;;
18776;SDS011;9517;51.174;4.160;2024-01-15T07:31:33;12.67;;;1.50;;
18776;SDS011;9517;51.174;4.160;2024-01-15T07:34:00;15.30;;;2.00;;
18776;SDS011;9517;51.174;4.160;2024-01-15T07:36:27;12.00;;;1.60;;
18776;SDS011;9517;51.174;4.160;2024-01-15T07:38:54;9.57;;;1.90;;
18776;SDS011;9517;51.174;4.160;2024-01-15T07:41:21;10.93;;;1.30;;
18776;SDS011;9517;51.174;4.160;2024-01-15T07:43:49;15.37;;;1.73;;
18776;SDS011;9517;51.174;4.160;2024-01-15T07:46:16;14.07;;;1.70;;
18776;SDS011;9517;51.174;4.160;2024-01-15T07:48:44;8.20;;;1.53;;
18776;SDS011;9517;51.174;4.160;2024-01-15T07:51:11;7.10;;;1.57;;
18776;SDS011;9517;51.174;4.160;2024-01-15T07:53:39;13.17;;;1.40;;
18776;SDS011;9517;51.174;4.160;2024-01-15T07:56:06;7.47;;;1.40;;
18776;SDS011;9517;51.174;4.160;2024-01-15T07:58:33;10.37;;;1.50;;
18776;SDS011;9517;51.174;4.160;2024-01-15T08:01:00;13.83;;;1.77;;
18776;SDS011;9517;51.174;4.160;2024-01-15T08:03:27;7.67;;;1.73;;
18776;SDS011;9517;51.174;4.160;2024-01-15T08:05:56;12.93;;;1.40;;
18776;SDS011;9517;51.174;4.160;2024-01-15T08:08:24;10.97;;;1.73;;
18776;SDS011;9517;51.174;4.160;2024-01-15T08:10:52;15.50;;;1.60;;
18776;SDS011;9517;51.174;4.160;2024-01-15T08:13:19;13.17;;;1.50;;
18776;SDS011;9517;51.174;4.160;2024-01-15T08:15:47;10.00;;;1.57;;
18776;SDS011;9517;51.174;4.160;2024-01-15T08:18:15;15.87;;;2.10;;
18776;SDS011;9517;51.174;4.160;2024-01-15T08:20:42;12.23;;;2.03;;
18776;SDS011;9517;51.174;4.160;2024-01-15T08:23:11;12.00;;;1.77;;
18776;SDS011;9517;51.174;4.160;2024-01-15T08:25:38;9.20;;;1.53;;
18776;SDS011;9517;51.174;4.160;2024-01-15T08:28:06;12.77;;;1.50;;
18776;SDS011;9517;51.174;4.160;2024-01-15T08:30:33;17.20;;;1.97;;
18776;SDS011;9517;51.174;4.160;2024-01-15T08:33:01;9.37;;;1.60;;
18776;SDS011;9517;51.174;4.160;2024-01-15T08:35:28;7.47;;;1.43;;
18776;SDS011;9517;51.174;4.160;2024-01-15T08:37:55;7.70;;;1.43;;
18776;SDS011;9517;51.174;4.160;2024-01-15T08:40:25;14.30;;;1.93;;
18776;SDS011;9517;51.174;4.160;2024-01-15T08:42:52;8.23;;;1.37;;
18776;SDS011;9517;51.174;4.160;2024-01-15T08:45:19;11.00;;;1.80;;
18776;SDS011;9517;51.174;4.160;2024-01-15T08:47:49;14.53;;;2.07;;
18776;SDS011;9517;51.174;4.160;2024-01-15T08:50:16;8.37;;;1.50;;
18776;SDS011;9517;51.174;4.160;2024-01-15T08:52:44;11.87;;;1.87;;
18776;SDS011;9517;51.174;4.160;2024-01-15T08:55:12;16.27;;;1.93;;
18776;SDS011;9517;51.174;4.160;2024-01-15T08:57:42;10.73;;;1.87;;
18776;SDS011;9517;51.174;4.160;2024-01-15T09:00:10;13.43;;;2.10;;
18776;SDS011;9517;51.174;4.160;2024-01-15T09:02:38;11.87;;;1.73;;
18776;SDS011;9517;51.174;4.160;2024-01-15T09:05:20;12.93;;;1.67;;
18776;SDS011;9517;51.174;4.160;2024-01-15T09:08:00;8.87;;;1.57;;
18776;SDS011;9517;51.174;4.160;2024-01-15T09:10:30;10.50;;;1.73;;
18776;SDS011;9517;51.174;4.160;2024-01-15T09:13:03;20.33;;;3.13;;
18776;SDS011;9517;51.174;4.160;2024-01-15T09:15:30;13.00;;;1.87;;
18776;SDS011;9517;51.174;4.160;2024-01-15T09:17:58;16.23;;;2.10;;
18776;SDS011;9517;51.174;4.160;2024-01-15T09:20:27;9.73;;;2.07;;
18776;SDS011;9517;51.174;4.160;2024-01-15T09:22:54;10.53;;;1.60;;
18776;SDS011;9517;51.174;4.160;2024-01-15T09:25:22;11.10;;;2.17;;
18776;SDS011;9517;51.174;4.160;2024-01-15T09:27:49;13.30;;;2.17;;
18776;SDS011;9517;51.174;4.160;2024-01-15T09:30:18;15.83;;;2.37;;
18776;SDS011;9517;51.174;4.160;2024-01-15T09:32:46;12.20;;;2.30;;
18776;SDS011;9517;51.174;4.160;2024-01-15T09:35:13;14.40;;;2.27;;
18776;SDS011;9517;51.174;4.160;2024-01-15T09:37:44;11.47;;;2.17;;
18776;SDS011;9517;51.174;4.160;2024-01-15T09:40:12;10.67;;;1.93;;
18776;SDS011;9517;51.174;4.160;2024-01-15T09:42:41;11.53;;;2.40;;
18776;SDS011;9517;51.174;4.160;2024-01-15T09:45:09;15.67;;;2.37;;
18776;SDS011;9517;51.174;4.160;2024-01-15T09:47:39;10.73;;;2.17;;
18776;SDS011;9517;51.174;4.160;2024-01-15T09:50:08;8.63;;;1.70;;
18776;SDS011;9517;51.174;4.160;2024-01-15T09:52:36;10.00;;;1.87;;
18776;SDS011;9517;51.174;4.160;2024-01-15T09:55:06;6.27;;;1.37;;
18776;SDS011;9517;51.174;4.160;2024-01-15T09:57:35;11.17;;;1.70;;
18776;SDS011;9517;51.174;4.160;2024-01-15T10:00:04;11.27;;;2.03;;
18776;SDS011;9517;51.174;4.160;2024-01-15T10:02:35;4.73;;;1.23;;
18776;SDS011;9517;51.174;4.160;2024-01-15T10:05:05;10.30;;;1.37;;
18776;SDS011;9517;51.174;4.160;2024-01-15T10:07:35;17.00;;;2.43;;
18776;SDS011;9517;51.174;4.160;2024-01-15T10:10:05;7.67;;;1.67;;
18776;SDS011;9517;51.174;4.160;2024-01-15T10:12:36;7.20;;;1.30;;
18776;SDS011;9517;51.174;4.160;2024-01-15T10:15:06;9.60;;;1.37;;
18776;SDS011;9517;51.174;4.160;2024-01-15T10:17:37;14.43;;;2.27;;
18776;SDS011;9517;51.174;4.160;2024-01-15T10:20:09;8.20;;;1.20;;
18776;SDS011;9517;51.174;4.160;2024-01-15T10:22:39;11.50;;;1.50;;
18776;SDS011;9517;51.174;4.160;2024-01-15T10:25:07;8.87;;;1.10;;
18776;SDS011;9517;51.174;4.160;2024-01-15T10:27:39;11.17;;;1.50;;
18776;SDS011;9517;51.174;4.160;2024-01-15T10:30:08;11.63;;;1.30;;
18776;SDS011;9517;51.174;4.160;2024-01-15T10:32:40;12.87;;;1.77;;
18776;SDS011;9517;51.174;4.160;2024-01-15T10:35:09;12.63;;;1.63;;
18776;SDS011;9517;51.174;4.160;2024-01-15T10:37:36;9.33;;;1.40;;
18776;SDS011;9517;51.174;4.160;2024-01-15T10:40:04;8.77;;;1.37;;
18776;SDS011;9517;51.174;4.160;2024-01-15T10:42:32;5.40;;;1.10;;
18776;SDS011;9517;51.174;4.160;2024-01-15T10:45:07;11.23;;;1.77;;
18776;SDS011;9517;51.174;4.160;2024-01-15T10:47:37;10.17;;;1.40;;
18776;SDS011;9517;51.174;4.160;2024-01-15T10:50:05;9.03;;;1.20;;
18776;SDS011;9517;51.174;4.160;2024-01-15T10:52:35;12.33;;;1.23;;
18776;SDS011;9517;51.174;4.160;2024-01-15T10:55:05;9.97;;;1.57;;
18776;SDS011;9517;51.174;4.160;2024-01-15T10:57:34;6.23;;;1.27;;
18776;SDS011;9517;51.174;4.160;2024-01-15T11:00:01;12.17;;;1.30;;
18776;SDS011;9517;51.174;4.160;2024-01-15T11:02:30;9.20;;;1.30;;
18776;SDS011;9517;51.174;4.160;2024-01-15T11:04:59;9.00;;;1.50;;
18776;SDS011;9517;51.174;4.160;2024-01-15T11:07:26;8.83;;;1.50;;
18776;SDS011;9517;51.174;4.160;2024-01-15T11:09:54;8.60;;;1.10;;
18776;SDS011;9517;51.174;4.160;2024-01-15T11:12:23;7.13;;;1.23;;
18776;SDS011;9517;51.174;4.160;2024-01-15T11:14:51;13.03;;;1.60;;
18776;SDS011;9517;51.174;4.160;2024-01-15T11:20:36;15.17;;;1.70;;
18776;SDS011;9517;51.174;4.160;2024-01-15T11:23:04;10.13;;;1.47;;
18776;SDS011;9517;51.174;4.160;2024-01-15T11:25:35;14.13;;;1.70;;
18776;SDS011;9517;51.174;4.160;2024-01-15T11:28:03;15.43;;;1.60;;
18776;SDS011;9517;51.174;4.160;2024-01-15T11:30:31;11.93;;;1.43;;
18776;SDS011;9517;51.174;4.160;2024-01-15T11:33:01;8.40;;;1.23;;
18776;SDS011;9517;51.174;4.160;2024-01-15T11:38:26;9.50;;;1.47;;
18776;SDS011;9517;51.174;4.160;2024-01-15T11:41:00;11.33;;;2.07;;
18776;SDS011;9517;51.174;4.160;2024-01-15T11:43:39;5.27;;;1.50;;
18776;SDS011;9517;51.174;4.160;2024-01-15T11:46:08;11.07;;;1.47;;
18776;SDS011;9517;51.174;4.160;2024-01-15T11:48:42;8.00;;;1.47;;
18776;SDS011;9517;51.174;4.160;2024-01-15T11:51:12;15.00;;;2.10;;
18776;SDS011;9517;51.174;4.160;2024-01-15T11:53:43;11.07;;;1.97;;
18776;SDS011;9517;51.174;4.160;2024-01-15T11:56:18;10.67;;;1.80;;
18776;SDS011;9517;51.174;4.160;2024-01-15T11:58:50;7.37;;;1.40;;
18776;SDS011;9517;51.174;4.160;2024-01-15T12:01:21;13.07;;;1.90;;
18776;SDS011;9517;51.174;4.160;2024-01-15T12:03:49;12.33;;;1.80;;
18776;SDS011;9517;51.174;4.160;2024-01-15T12:06:17;9.53;;;1.37;;
18776;SDS011;9517;51.174;4.160;2024-01-15T12:08:45;7.70;;;1.40;;
18776;SDS011;9517;51.174;4.160;2024-01-15T12:11:13;5.47;;;1.03;;
18776;SDS011;9517;51.174;4.160;2024-01-15T12:13:45;8.37;;;1.57;;
18776;SDS011;9517;51.174;4.160;2024-01-15T12:16:12;9.27;;;1.37;;
18776;SDS011;9517;51.174;4.160;2024-01-15T12:18:40;9.27;;;1.80;;
18776;SDS011;9517;51.174;4.160;2024-01-15T12:21:08;9.20;;;1.70;;
18776;SDS011;9517;51.174;4.160;2024-01-15T12:23:36;14.27;;;2.13;;
18776;SDS011;9517;51.174;4.160;2024-01-15T12:26:04;15.10;;;2.20;;
18776;SDS011;9517;51.174;4.160;2024-01-15T12:28:33;12.63;;;1.70;;
18776;SDS011;9517;51.174;4.160;2024-01-15T12:31:00;3.63;;;1.00;;
18776;SDS011;9517;51.174;4.160;2024-01-15T12:33:30;5.90;;;0.70;;
18776;SDS011;9517;51.174;4.160;2024-01-15T12:35:57;1.70;;;0.43;;
18776;SDS011;9517;51.174;4.160;2024-01-15T12:38:25;1.77;;;0.40;;
18776;SDS011;9517;51.174;4.160;2024-01-15T12:40:54;1.50;;;0.37;;
18776;SDS011;9517;51.174;4.160;2024-01-15T12:43:22;3.37;;;0.63;;
18776;SDS011;9517;51.174;4.160;2024-01-15T12:45:52;3.53;;;0.60;;
18776;SDS011;9517;51.174;4.160;2024-01-15T12:48:19;5.97;;;0.80;;
18776;SDS011;9517;51.174;4.160;2024-01-15T12:50:47;3.30;;;1.00;;
18776;SDS011;9517;51.174;4.160;2024-01-15T12:53:14;8.67;;;1.00;;
18776;SDS011;9517;51.174;4.160;2024-01-15T12:55:42;6.00;;;0.83;;
18776;SDS011;9517;51.174;4.160;2024-01-15T12:58:10;2.87;;;0.80;;
18776;SDS011;9517;51.174;4.160;2024-01-15T13:00:37;5.77;;;0.93;;
18776;SDS011;9517;51.174;4.160;2024-01-15T13:03:06;4.17;;;0.90;;
18776;SDS011;9517;51.174;4.160;2024-01-15T13:05:33;3.50;;;0.57;;
18776;SDS011;9517;51.174;4.160;2024-01-15T13:08:01;3.33;;;0.70;;
18776;SDS011;9517;51.174;4.160;2024-01-15T13:10:29;3.47;;;0.60;;
18776;SDS011;9517;51.174;4.160;2024-01-15T13:12:56;3.43;;;0.50;;
18776;SDS011;9517;51.174;4.160;2024-01-15T13:15:24;6.80;;;1.60;;
18776;SDS011;9517;51.174;4.160;2024-01-15T13:17:51;6.03;;;1.57;;
18776;SDS011;9517;51.174;4.160;2024-01-15T13:20:20;4.73;;;0.93;;
18776;SDS011;9517;51.174;4.160;2024-01-15T13:22:47;3.73;;;0.80;;
18776;SDS011;9517;51.174;4.160;2024-01-15T13:25:15;5.40;;;1.03;;
18776;SDS011;9517;51.174;4.160;2024-01-15T13:27:42;6.20;;;1.30;;
18776;SDS011;9517;51.174;4.160;2024-01-15T13:30:10;8.23;;;1.10;;
18776;SDS011;9517;51.174;4.160;2024-01-15T13:32:39;11.90;;;2.20;;
18776;SDS011;9517;51.174;4.160;2024-01-15T13:35:06;6.20;;;1.37;;
18776;SDS011;9517;51.174;4.160;2024-01-15T13:37:39;6.97;;;1.73;;
18776;SDS011;9517;51.174;4.160;2024-01-15T13:40:07;7.23;;;1.67;;
18776;SDS011;9517;51.174;4.160;2024-01-15T13:42:41;4.70;;;0.90;;
18776;SDS011;9517;51.174;4.160;2024-01-15T13:45:08;6.37;;;1.90;;
18776;SDS011;9517;51.174;4.160;2024-01-15T13:47:38;6.93;;;2.03;;
18776;SDS011;9517;51.174;4.160;2024-01-15T13:50:07;8.10;;;1.60;;
18776;SDS011;9517;51.174;4.160;2024-01-15T13:52:35;9.77;;;1.57;;
18776;SDS011;9517;51.174;4.160;2024-01-15T13:55:04;11.20;;;1.60;;
18776;SDS011;9517;51.174;4.160;2024-01-15T13:57:34;8.23;;;1.60;;
18776;SDS011;9517;51.174;4.160;2024-01-15T14:00:02;9.73;;;2.37;;
18776;SDS011;9517;51.174;4.160;2024-01-15T14:02:34;9.47;;;1.53;;
18776;SDS011;9517;51.174;4.160;2024-01-15T14:05:01;7.87;;;1.50;;
18776;SDS011;9517;51.174;4.160;2024-01-15T14:07:29;10.80;;;1.90;;
18776;SDS011;9517;51.174;4.160;2024-01-15T14:09:56;13.23;;;2.20;;
18776;SDS011;9517;51.174;4.160;2024-01-15T14:12:25;10.53;;;2.17;;
18776;SDS011;9517;51.174;4.160;2024-01-15T14:14:54;12.03;;;1.83;;
18776;SDS011;9517;51.174;4.160;2024-01-15T14:17:21;11.60;;;1.80;;
18776;SDS011;9517;51.174;4.160;2024-01-15T14:19:48;10.97;;;1.93;;
18776;SDS011;9517;51.174;4.160;2024-01-15T14:22:16;14.43;;;2.03;;
18776;SDS011;9517;51.174;4.160;2024-01-15T14:24:43;10.23;;;2.10;;
18776;SDS011;9517;51.174;4.160;2024-01-15T14:27:10;12.17;;;1.93;;
18776;SDS011;9517;51.174;4.160;2024-01-15T14:29:39;6.37;;;1.30;;
18776;SDS011;9517;51.174;4.160;2024-01-15T14:32:06;9.33;;;1.60;;
18776;SDS011;9517;51.174;4.160;2024-01-15T14:34:34;8.03;;;1.23;;
18776;SDS011;9517;51.174;4.160;2024-01-15T14:37:02;9.83;;;1.10;;
18776;SDS011;9517;51.174;4.160;2024-01-15T14:39:29;7.77;;;1.13;;
18776;SDS011;9517;51.174;4.160;2024-01-15T14:41:59;7.00;;;0.97;;
18776;SDS011;9517;51.174;4.160;2024-01-15T14:44:26;12.07;;;1.77;;
18776;SDS011;9517;51.174;4.160;2024-01-15T14:46:56;7.97;;;1.27;;
18776;SDS011;9517;51.174;4.160;2024-01-15T14:49:23;4.13;;;1.00;;
18776;SDS011;9517;51.174;4.160;2024-01-15T14:51:51;7.83;;;2.23;;
18776;SDS011;9517;51.174;4.160;2024-01-15T14:54:18;8.83;;;1.40;;
18776;SDS011;9517;51.174;4.160;2024-01-15T14:56:46;14.17;;;3.47;;
18776;SDS011;9517;51.174;4.160;2024-01-15T14:59:13;10.97;;;1.60;;
18776;SDS011;9517;51.174;4.160;2024-01-15T15:01:40;8.97;;;1.17;;
18776;SDS011;9517;51.174;4.160;2024-01-15T15:04:09;14.33;;;1.93;;
18776;SDS011;9517;51.174;4.160;2024-01-15T15:06:36;7.80;;;0.97;;
18776;SDS011;9517;51.174;4.160;2024-01-15T15:09:03;10.03;;;1.67;;
18776;SDS011;9517;51.174;4.160;2024-01-15T15:11:35;12.93;;;2.00;;
18776;SDS011;9517;51.174;4.160;2024-01-15T15:14:02;11.57;;;2.07;;
18776;SDS011;9517;51.174;4.160;2024-01-15T15:16:30;12.87;;;1.87;;
18776;SDS011;9517;51.174;4.160;2024-01-15T15:18:57;10.50;;;1.73;;
18776;SDS011;9517;51.174;4.160;2024-01-15T15:21:26;8.37;;;1.60;;